createdAt,value
2022-08-16T00:00:05.042Z,11.73
2022-08-16T00:03:13.396Z,10.88
2022-08-16T00:06:15.551Z,11.40
2022-08-16T00:09:21.104Z,10.65
2022-08-16T00:12:26.691Z,10.55
2022-08-16T00:15:51.759Z,10.03
2022-08-16T00:18:53.879Z,10.60
2022-08-16T00:22:03.048Z,10.20
2022-08-16T00:25:05.515Z,11.25
2022-08-16T00:28:11.063Z,11.08
2022-08-16T00:31:16.729Z,9.83
2022-08-16T00:34:43.516Z,9.73
2022-08-16T00:37:57.122Z,11.18
2022-08-16T00:40:50.646Z,10.70
2022-08-16T00:43:54.868Z,10.63
2022-08-16T00:47:11.930Z,10.55
2022-08-16T00:50:17.531Z,10.10
2022-08-16T00:53:26.559Z,11.18
2022-08-16T00:56:58.456Z,11.30
2022-08-16T00:59:57.438Z,10.93
2022-08-16T01:02:57.150Z,10.82
2022-08-16T01:06:39.932Z,11.33
2022-08-16T01:09:11.976Z,11.05
2022-08-16T01:12:26.576Z,11.55
2022-08-16T01:15:25.573Z,10.23
2022-08-16T01:18:40.617Z,11.12
2022-08-16T01:22:47.791Z,10.38
2022-08-16T01:25:33.893Z,10.82
2022-08-16T01:28:36.961Z,10.45
2022-08-16T01:31:42.743Z,10.40
2022-08-16T01:34:56.730Z,10.48
2022-08-16T01:38:00.283Z,9.58
2022-08-16T01:41:09.037Z,10.90
2022-08-16T01:44:14.513Z,9.83
2022-08-16T01:47:21.360Z,9.70
2022-08-16T01:50:43.472Z,9.95
2022-08-16T01:53:35.273Z,10.78
2022-08-16T01:56:51.645Z,10.48
2022-08-16T01:59:58.195Z,10.78
2022-08-16T02:03:04.895Z,6.87
2022-08-16T02:06:10.567Z,5.87
2022-08-16T02:09:17.630Z,3.25
2022-08-16T02:12:45.868Z,3.90
2022-08-16T02:15:30.527Z,4.50
2022-08-16T03:31:57.028Z,5.53
2022-08-16T03:35:04.408Z,5.40
2022-08-16T03:38:33.078Z,6.03
2022-08-16T03:41:25.288Z,5.50
2022-08-16T03:44:44.208Z,5.58
2022-08-16T03:47:39.089Z,5.25
2022-08-16T03:50:59.541Z,5.53
2022-08-16T03:54:01.000Z,5.10
2022-08-16T03:56:59.796Z,5.35
2022-08-16T04:00:05.889Z,5.17
2022-08-16T04:03:18.509Z,7.42
2022-08-16T04:06:25.049Z,9.48
2022-08-16T04:09:35.479Z,9.28
2022-08-16T04:12:53.626Z,12.23
2022-08-16T04:15:47.318Z,11.57
2022-08-16T04:19:02.568Z,13.10
2022-08-16T04:22:08.583Z,19.35
2022-08-16T04:25:12.986Z,17.67
2022-08-16T04:28:51.765Z,16.27
2022-08-16T04:31:27.587Z,22.32
2022-08-16T04:34:34.362Z,21.27
2022-08-16T04:37:42.157Z,28.52
2022-08-16T04:40:50.357Z,33.20
2022-08-16T04:43:56.285Z,36.42
2022-08-16T04:47:23.972Z,37.20
2022-08-16T04:50:10.980Z,37.78
2022-08-16T04:53:30.550Z,38.38
2022-08-16T04:56:35.792Z,31.50
2022-08-16T04:59:42.806Z,40.35
2022-08-16T05:02:54.898Z,38.78
2022-08-16T05:05:59.729Z,37.10
2022-08-16T05:09:03.994Z,25.85
2022-08-16T05:12:11.026Z,26.23
2022-08-16T05:15:17.152Z,24.75
2022-08-16T05:18:27.738Z,19.42
2022-08-16T05:21:38.318Z,19.23
2022-08-16T05:24:40.993Z,17.83
2022-08-16T05:27:48.604Z,15.70
2022-08-16T05:30:55.155Z,18.50
2022-08-16T05:33:59.946Z,21.07
2022-08-16T05:37:05.382Z,23.30
2022-08-16T05:40:13.217Z,29.18
2022-08-16T05:43:18.793Z,34.92
2022-08-16T05:46:29.820Z,37.78
2022-08-16T05:49:39.669Z,35.85
2022-08-16T05:52:45.703Z,31.73
2022-08-16T05:55:51.781Z,29.85
2022-08-16T05:58:57.353Z,24.65
2022-08-16T06:02:06.161Z,13.75
2022-08-16T06:05:11.142Z,11.73
2022-08-16T06:08:30.870Z,8.68
2022-08-16T06:11:25.652Z,8.65
2022-08-16T06:14:33.298Z,7.70
2022-08-16T06:17:43.164Z,7.83
2022-08-16T06:20:55.166Z,7.53
2022-08-16T06:23:56.523Z,6.85
2022-08-16T06:27:03.710Z,6.67
2022-08-16T06:30:09.546Z,7.47
2022-08-16T06:33:22.450Z,9.15
2022-08-16T06:36:26.792Z,14.40
2022-08-16T06:39:49.167Z,15.45
2022-08-16T06:43:01.020Z,16.75
2022-08-16T06:46:09.806Z,17.98
2022-08-16T06:49:22.462Z,21.35
2022-08-16T06:52:57.935Z,20.88
2022-08-16T06:55:35.517Z,20.37
2022-08-16T06:58:44.078Z,18.02
2022-08-16T07:01:54.775Z,17.15
2022-08-16T07:05:00.426Z,16.60
2022-08-16T07:08:06.052Z,15.75
2022-08-16T07:11:11.578Z,15.60
2022-08-16T07:14:26.365Z,14.20
2022-08-16T07:17:27.041Z,13.75
2022-08-16T07:20:47.048Z,14.05
2022-08-16T07:23:42.649Z,14.25
2022-08-16T07:26:48.639Z,12.65
2022-08-16T07:29:56.336Z,11.43
2022-08-16T07:33:02.690Z,10.93
2022-08-16T07:36:09.655Z,10.38
2022-08-16T07:39:16.870Z,10.08
2022-08-16T07:42:34.869Z,10.55
2022-08-16T07:45:29.594Z,9.43
2022-08-16T07:48:36.520Z,9.75
2022-08-16T07:51:43.083Z,10.23
2022-08-16T07:54:49.085Z,10.63
2022-08-16T07:58:01.090Z,10.05
2022-08-16T08:01:00.164Z,10.82
2022-08-16T08:03:59.849Z,9.80
2022-08-16T08:07:09.000Z,11.75
2022-08-16T08:10:18.771Z,12.07
2022-08-16T08:13:41.655Z,13.80
2022-08-16T08:16:31.613Z,13.55
2022-08-16T08:19:37.375Z,13.65
2022-08-16T08:22:45.871Z,10.35
2022-08-16T08:25:54.767Z,10.13
2022-08-16T08:29:01.707Z,8.25
2022-08-16T08:32:57.509Z,7.25
2022-08-16T08:35:14.547Z,7.25
2022-08-16T08:38:44.250Z,9.35
2022-08-16T08:44:43.413Z,7.87
2022-08-16T08:47:58.318Z,7.85
2022-08-16T08:50:58.766Z,8.33
2022-08-16T08:54:09.438Z,7.87
2022-08-16T08:57:15.947Z,7.47
2022-08-16T09:00:26.937Z,6.67
2022-08-16T09:03:33.793Z,7.62
2022-08-16T09:06:44.371Z,7.65
2022-08-16T09:09:49.261Z,7.70
2022-08-16T09:12:56.035Z,7.80
2022-08-16T09:16:04.930Z,7.42
2022-08-16T09:19:11.984Z,7.03
2022-08-16T09:22:20.142Z,8.40
2022-08-16T09:25:34.482Z,7.55
2022-08-16T09:29:06.722Z,7.50
2022-08-16T09:31:44.913Z,7.55
2022-08-16T09:34:50.946Z,6.90
2022-08-16T09:38:00.550Z,7.72
2022-08-16T09:41:06.477Z,7.75
2022-08-16T09:45:10.643Z,7.67
2022-08-16T09:47:23.612Z,7.22
2022-08-16T09:50:37.155Z,7.45
2022-08-16T09:53:37.627Z,7.87
2022-08-16T09:56:52.755Z,7.97
2022-08-16T09:59:56.811Z,8.33
2022-08-16T10:03:09.139Z,7.45
2022-08-16T10:06:13.330Z,6.87
2022-08-16T10:09:20.736Z,7.87
2022-08-16T10:12:45.530Z,7.35
2022-08-16T10:15:55.805Z,7.45
2022-08-16T10:19:06.609Z,7.22
2022-08-16T10:22:05.858Z,7.70
2022-08-16T10:25:12.506Z,8.85
2022-08-16T10:28:28.672Z,8.00
2022-08-16T10:31:45.529Z,8.58
2022-08-16T10:34:33.975Z,8.43
2022-08-16T10:37:39.149Z,8.45
2022-08-16T10:40:45.520Z,7.97
2022-08-16T10:43:52.220Z,9.60
2022-08-16T10:46:58.123Z,7.42
2022-08-16T10:50:03.160Z,7.78
2022-08-16T10:53:12.016Z,8.33
2022-08-16T10:56:52.916Z,7.60
2022-08-16T10:59:38.427Z,9.08
2022-08-16T11:02:58.395Z,7.42
2022-08-16T11:09:20.855Z,8.65
2022-08-16T11:12:14.746Z,8.50
2022-08-16T11:15:13.763Z,8.33
2022-08-16T11:18:48.281Z,8.73
2022-08-16T11:21:29.340Z,8.33
2022-08-16T11:24:42.937Z,8.40
2022-08-16T11:27:36.434Z,8.15
2022-08-16T11:36:35.694Z,7.72
2022-08-16T11:39:40.878Z,7.97
2022-08-16T11:42:46.385Z,8.03
2022-08-16T11:45:54.195Z,8.53
2022-08-16T11:48:53.650Z,8.48
2022-08-16T11:52:00.008Z,7.90
2022-08-16T11:55:05.601Z,7.55
2022-08-16T11:58:11.925Z,8.70
2022-08-16T12:01:20.612Z,7.90
2022-08-16T12:04:28.232Z,8.40
2022-08-16T12:07:35.542Z,8.43
2022-08-16T12:10:43.252Z,7.78
2022-08-16T12:13:50.116Z,8.45
2022-08-16T12:16:57.742Z,8.33
2022-08-16T12:20:07.525Z,8.23
2022-08-16T12:23:19.625Z,7.47
2022-08-16T12:26:26.229Z,7.33
2022-08-16T12:29:31.914Z,7.22
2022-08-16T12:32:54.580Z,8.48
2022-08-16T12:35:49.325Z,7.78
2022-08-16T12:38:58.225Z,7.40
2022-08-16T12:42:04.990Z,7.47
2022-08-16T12:45:10.694Z,6.78
2022-08-16T12:48:35.143Z,8.03
2022-08-16T12:51:58.677Z,7.50
2022-08-16T12:54:56.731Z,8.43
2022-08-16T12:58:03.420Z,8.48
2022-08-16T13:01:10.261Z,8.43
2022-08-16T13:04:21.304Z,7.80
2022-08-16T13:07:27.171Z,6.78
2022-08-16T13:10:37.292Z,7.33
2022-08-16T13:13:43.445Z,7.45
2022-08-16T13:16:49.773Z,6.47
2022-08-16T13:20:10.919Z,5.67
2022-08-16T13:23:18.169Z,6.12
2022-08-16T13:26:23.581Z,6.35
2022-08-16T13:29:39.983Z,5.47
2022-08-16T13:32:40.127Z,6.70
2022-08-16T13:35:43.760Z,5.37
2022-08-16T13:38:51.050Z,7.50
2022-08-16T13:41:57.576Z,6.65
2022-08-16T13:45:05.207Z,6.85
2022-08-16T13:48:24.550Z,7.00
2022-08-16T13:51:21.134Z,6.55
2022-08-16T13:54:31.378Z,6.95
2022-08-16T13:57:53.706Z,6.40
2022-08-16T14:00:43.218Z,6.65
2022-08-16T14:03:49.750Z,6.72
2022-08-16T14:06:56.466Z,6.92
2022-08-16T14:10:02.323Z,7.97
2022-08-16T14:13:19.918Z,8.30
2022-08-16T14:16:23.918Z,7.10
2022-08-16T14:19:25.266Z,8.83
2022-08-16T14:22:45.369Z,7.70
2022-08-16T14:25:54.115Z,9.35
2022-08-16T14:29:03.092Z,8.30
2022-08-16T14:32:09.186Z,8.03
2022-08-16T14:35:17.158Z,7.45
2022-08-16T14:38:24.827Z,7.92
2022-08-16T14:41:32.666Z,9.40
2022-08-16T14:44:38.395Z,9.30
2022-08-16T14:47:45.404Z,7.85
2022-08-16T14:50:51.883Z,7.90
2022-08-16T14:53:57.336Z,7.28
2022-08-16T14:57:03.599Z,7.28
2022-08-16T15:00:09.560Z,8.03
2022-08-16T15:03:19.104Z,7.20
2022-08-16T15:06:25.305Z,7.45
2022-08-16T15:09:32.061Z,6.97
2022-08-16T15:12:38.194Z,7.70
2022-08-16T15:15:44.876Z,7.97
2022-08-16T15:18:50.774Z,7.42
2022-08-16T15:21:57.531Z,8.15
2022-08-16T15:25:05.226Z,7.70
2022-08-16T15:28:30.747Z,7.60
2022-08-16T15:31:21.343Z,7.78
2022-08-16T15:34:26.932Z,7.35
2022-08-16T15:37:42.707Z,6.92
2022-08-16T15:40:57.516Z,6.72
2022-08-16T15:43:48.067Z,8.13
2022-08-16T15:46:58.646Z,6.92
2022-08-16T15:50:01.602Z,7.95
2022-08-16T15:53:12.438Z,8.35
2022-08-16T15:56:18.167Z,7.47
2022-08-16T15:59:27.093Z,7.08
2022-08-16T16:02:34.477Z,6.60
2022-08-16T16:05:40.191Z,7.42
2022-08-16T16:08:46.065Z,6.85
2022-08-16T16:11:52.086Z,7.97
2022-08-16T16:15:00.547Z,7.50
2022-08-16T16:18:09.505Z,8.00
2022-08-16T16:21:22.134Z,6.70
2022-08-16T16:24:30.722Z,6.90
2022-08-16T16:27:35.228Z,9.30
2022-08-16T16:30:44.915Z,7.53
2022-08-16T16:33:50.331Z,7.53
2022-08-16T16:36:55.958Z,7.22
2022-08-16T16:40:01.427Z,7.42
2022-08-16T16:43:08.077Z,7.25
2022-08-16T16:46:41.091Z,8.30
2022-08-16T16:49:22.914Z,7.40
2022-08-16T16:52:43.242Z,8.40
2022-08-16T16:55:35.925Z,7.83
2022-08-16T16:59:01.718Z,8.05
2022-08-16T17:02:41.203Z,8.23
2022-08-16T17:05:13.773Z,9.68
2022-08-16T17:08:22.875Z,8.80
2022-08-16T17:11:37.497Z,8.45
2022-08-16T17:14:42.815Z,7.83
2022-08-16T17:20:55.254Z,8.60
2022-08-16T17:24:01.092Z,9.45
2022-08-16T17:27:07.608Z,7.62
2022-08-16T17:30:17.096Z,9.20
2022-08-16T17:33:24.809Z,9.53
2022-08-16T17:36:36.343Z,7.70
2022-08-16T17:39:26.422Z,8.75
2022-08-16T17:40:05.929Z,8.40
2022-08-16T17:42:47.963Z,8.73
2022-08-16T17:45:53.083Z,8.45
2022-08-16T17:48:59.338Z,8.43
2022-08-16T17:52:05.590Z,9.43
2022-08-16T17:55:12.377Z,8.90
2022-08-16T17:58:22.902Z,8.58
2022-08-16T18:01:25.208Z,9.38
2022-08-16T18:04:49.502Z,8.68
2022-08-16T18:07:38.774Z,9.48
2022-08-16T18:10:44.900Z,8.48
2022-08-16T18:13:53.108Z,8.80
2022-08-16T18:16:58.324Z,9.25
2022-08-16T18:20:04.076Z,9.03
2022-08-16T18:23:09.936Z,9.38
2022-08-16T18:26:18.164Z,8.30
2022-08-16T18:29:24.499Z,9.58
2022-08-16T18:32:29.831Z,9.20
2022-08-16T18:35:36.220Z,8.60
2022-08-16T18:38:41.828Z,9.33
2022-08-16T18:41:47.389Z,8.78
2022-08-16T18:44:57.493Z,9.55
2022-08-16T18:48:03.514Z,8.93
2022-08-16T18:51:17.494Z,9.08
2022-08-16T18:54:18.492Z,9.38
2022-08-16T18:57:24.709Z,8.40
2022-08-16T19:00:32.904Z,8.83
2022-08-16T19:03:45.801Z,10.23
2022-08-16T19:06:52.749Z,8.78
2022-08-16T19:09:59.497Z,9.50
2022-08-16T19:13:05.293Z,9.63
2022-08-16T19:16:12.672Z,9.60
2022-08-16T19:19:18.380Z,9.18
2022-08-16T19:22:39.418Z,8.03
2022-08-16T19:25:47.090Z,9.38
2022-08-16T19:28:59.964Z,8.95
2022-08-16T19:32:01.595Z,9.68
2022-08-16T19:35:10.689Z,9.48
2022-08-16T19:38:16.291Z,9.55
2022-08-16T19:41:21.455Z,9.78
2022-08-16T19:44:26.633Z,9.60
2022-08-16T19:47:32.125Z,9.50
2022-08-16T19:50:38.489Z,9.15
2022-08-16T19:53:45.716Z,9.13
2022-08-16T19:56:51.384Z,9.33
2022-08-16T19:59:59.383Z,9.70
2022-08-16T20:03:07.123Z,10.15
2022-08-16T20:06:12.843Z,10.13
2022-08-16T20:09:20.525Z,10.55
2022-08-16T20:12:30.362Z,9.50
2022-08-16T20:18:44.317Z,9.10
2022-08-16T20:21:50.089Z,9.38
2022-08-16T20:24:55.455Z,10.95
2022-08-16T20:28:02.967Z,11.12
2022-08-16T20:31:08.689Z,10.68
2022-08-16T20:34:14.085Z,10.75
2022-08-16T20:37:20.031Z,10.48
2022-08-16T20:40:34.500Z,10.78
2022-08-16T20:43:35.215Z,10.72
2022-08-16T20:46:40.455Z,10.65
2022-08-16T20:49:46.431Z,9.98
2022-08-16T20:52:52.389Z,11.43
2022-08-16T20:55:58.426Z,10.63
2022-08-16T20:59:04.834Z,10.75
2022-08-16T21:02:11.644Z,10.75
2022-08-16T21:05:20.370Z,11.93
2022-08-16T21:08:50.185Z,10.53
2022-08-16T21:11:34.847Z,11.88
2022-08-16T21:14:41.899Z,11.93
2022-08-16T21:17:48.123Z,11.78
2022-08-16T21:20:54.629Z,11.85
2022-08-16T21:24:01.570Z,12.75
2022-08-16T21:27:07.755Z,13.22
2022-08-16T21:30:15.261Z,12.05
2022-08-16T21:33:28.672Z,11.10
2022-08-16T21:36:36.324Z,11.10
2022-08-16T21:39:42.387Z,11.60
2022-08-16T21:42:47.692Z,11.43
2022-08-16T21:45:55.567Z,11.73
2022-08-16T21:49:00.621Z,10.72
2022-08-16T21:52:06.522Z,11.35
2022-08-16T21:55:11.704Z,11.83
2022-08-16T21:58:17.142Z,10.72
2022-08-16T22:01:22.869Z,10.63
2022-08-16T22:04:37.785Z,11.78
2022-08-16T22:07:37.047Z,11.12
2022-08-16T22:11:05.828Z,11.90
2022-08-16T22:13:57.798Z,12.55
2022-08-16T22:17:01.732Z,11.53
2022-08-16T22:20:07.940Z,12.73
2022-08-16T22:23:21.822Z,12.60
2022-08-16T22:26:30.838Z,12.13
2022-08-16T22:29:35.292Z,10.53
2022-08-16T22:32:43.353Z,10.80
2022-08-16T22:35:48.940Z,11.18
2022-08-16T22:38:57.540Z,11.15
2022-08-16T22:42:00.888Z,12.82
2022-08-16T22:45:06.261Z,13.98
2022-08-16T22:48:12.143Z,14.43
2022-08-16T22:51:17.634Z,13.60
2022-08-16T22:54:48.050Z,13.08
2022-08-16T22:57:31.538Z,12.65
2022-08-16T23:00:40.340Z,12.33
2022-08-16T23:03:46.415Z,13.10
2022-08-16T23:06:52.226Z,13.03
2022-08-16T23:09:58.847Z,13.32
2022-08-16T23:13:11.709Z,12.98
2022-08-16T23:16:20.627Z,13.13
2022-08-16T23:19:27.487Z,12.85
2022-08-16T23:22:33.161Z,14.75
2022-08-16T23:25:44.976Z,14.23
2022-08-16T23:28:50.334Z,14.13
2022-08-16T23:31:56.966Z,15.23
2022-08-16T23:35:03.117Z,12.82
2022-08-16T23:38:09.504Z,12.90
2022-08-16T23:41:17.617Z,14.70
2022-08-16T23:44:42.291Z,13.18
2022-08-16T23:47:31.470Z,13.00
2022-08-16T23:50:39.011Z,13.68
2022-08-16T23:53:48.119Z,12.13
2022-08-16T23:56:53.563Z,13.58
